Airfield :
LOGIN :

Register | Disclaimer

   EN    FR    IT 

 










Legend :    VFR   Marginal VFR   IFR   Intensive IFR   Very Intensive IFR
Visi :
Ceiling :
>= 8 km
>= 3000ft
5 to 8 km
1000 to 3000 ft
1500m to 5 km
500 to 1000 ft
800 to 1500m
200 to 500 ft
< 800m
< 200 ft
Symbols :   Thunderstorms  Fog  Heavy snow  Heavy precipitations  Wind > 20 kt
SIGMETs :     Misc.  Thunderstorms  Icing  Turbulence  Mountain Waves  Volcanic Ashes






- Airport Elevation : 160 ft
- IATA code : LRT


LFRH - Lorient Lann Bihoue

CURRENT METAR :
  • 280030Z AUTO 08004KT CAVOK 04/03 Q1018 NOSIG

EXPIRED METARs :
  • 280000Z AUTO 10003KT CAVOK 04/03 Q1018 NOSIG
  • 272330Z AUTO 10002KT CAVOK 04/02 Q1018 NOSIG
  • 272300Z AUTO VRB02KT CAVOK 04/02 Q1018 NOSIG
  • 272230Z AUTO 00000KT CAVOK 05/03 Q1018 BECMG 35010KT
  • 272200Z AUTO 13003KT CAVOK 05/03 Q1018 BECMG 35010KT

TAF AMD TAF LFRH
Valid from the 28 at 00:00 until the 29 at 00:00 UTC


272305Z 2800/2824 10003KT CAVOK
BECMG 2803/2805 18015KT 3000 RA BKN008 OVC015
BECMG 2805/2807 24015KT 4000 RADZ OVC002
BECMG 2812/2814 24015G25KT 9999 NSW BKN005 OVC010
BECMG 2816/2818 SCT010 BKN015
BECMG 2820/2822 18017G30KT CAVOK



MET'MAP, your aeronautical weather chart ! - Copyright ORBIFLY December 2007 - Disclaimer

ORBIFLY MET'MAP TEAM :

Programming & Development : Alexandra Zaïnal
Concept & original design : Baudouin d'Aumeries
Assistance for programming : Marc-Olivier Méhu
Technical & hardware support : Manuel Goepfert

Contact : metmap@orbifly.com




SOURCES & CREDITS :

   NOAA